Time;durP1;ratioP1;P1;durP2;ratioP2;P2;SDS_P1;SDS_P2;PMS_P1;PMS_P2;Temp;Humidity;BMP_temperature;BMP_pressure;BME280_temperature;BME280_humidity;BME280_pressure;Samples;Min_cycle;Max_cycle;Signal;HPM_P1;HPM_P2
2023/11/11 09:21:57;;;;;;;3.97;3.05;;;;;;;;;;5908333;23;20152;-96
2023/11/11 09:24:23;;;;;;;2.90;2.55;;;;;;;;;;4961995;28;20039;-95
2023/11/11 09:26:50;;;;;;;3.30;2.40;;;;;;;;;;4960260;28;20027;-90
2023/11/11 11:51:10;;;;;;;2.07;1.77;;;;;;;;;;4940615;29;20047;-94
2023/11/11 11:53:43;;;;;;;2.00;1.83;;;;;;;;;;4959009;29;20289;-88
2023/11/11 11:56:29;;;;;;;2.05;1.90;;;;;;;;;;4959677;28;20031;-94
2023/11/11 11:58:55;;;;;;;1.90;1.80;;;;;;;;;;4958298;29;20055;-92
2023/11/11 12:01:24;;;;;;;2.30;2.08;;;;;;;;;;4959757;28;20023;-93
2023/11/11 12:03:51;;;;;;;1.60;1.45;;;;;;;;;;4957755;29;20034;-92
2023/11/11 12:06:18;;;;;;;1.77;1.67;;;;;;;;;;4958179;29;20482;-93
2023/11/11 12:09:00;;;;;;;2.35;1.95;;;;;;;;;;4958526;29;20027;-94
2023/11/11 12:11:31;;;;;;;2.05;1.85;;;;;;;;;;4959040;28;20032;-92
2023/11/11 12:14:07;;;;;;;2.10;1.90;;;;;;;;;;4959847;28;20027;-88
2023/11/11 12:16:49;;;;;;;2.17;1.73;;;;;;;;;;4958689;28;20049;-88
2023/11/11 12:19:21;;;;;;;1.88;1.60;;;;;;;;;;4960829;28;20024;-92
2023/11/11 12:21:50;;;;;;;2.60;1.85;;;;;;;;;;4958551;28;20019;-89
2023/11/11 12:24:18;;;;;;;2.50;2.30;;;;;;;;;;4961443;28;20050;-90
2023/11/11 12:26:47;;;;;;;2.95;2.40;;;;;;;;;;4958605;28;20102;-90
2023/11/11 12:29:13;;;;;;;3.00;2.28;;;;;;;;;;4957392;29;20031;-89
2023/11/11 12:31:49;;;;;;;1.75;1.65;;;;;;;;;;4958514;28;20035;-90
2023/11/11 12:34:23;;;;;;;2.00;1.70;;;;;;;;;;4958248;28;20038;-89
2023/11/11 12:36:52;;;;;;;1.90;1.67;;;;;;;;;;4958316;28;20051;-88
2023/11/11 12:39:17;;;;;;;1.90;1.50;;;;;;;;;;4957409;28;20438;-90
2023/11/11 12:41:50;;;;;;;3.45;1.80;;;;;;;;;;4957049;28;20273;-89
2023/11/11 12:44:16;;;;;;;3.13;2.17;;;;;;;;;;4958535;28;20027;-90
2023/11/11 12:46:43;;;;;;;2.63;1.98;;;;;;;;;;4958601;28;20106;-90
2023/11/11 12:49:10;;;;;;;1.65;1.55;;;;;;;;;;4958221;28;20034;-89
2023/11/11 12:51:36;;;;;;;1.67;1.58;;;;;;;;;;4956986;28;20043;-90
2023/11/11 12:54:03;;;;;;;3.22;1.83;;;;;;;;;;4957762;28;20086;-86
2023/11/11 12:56:29;;;;;;;1.77;1.48;;;;;;;;;;4957957;28;20055;-86
2023/11/11 12:59:09;;;;;;;1.70;1.40;;;;;;;;;;4957928;28;20071;-85
2023/11/11 13:01:36;;;;;;;1.63;1.50;;;;;;;;;;4957464;28;20031;-85
2023/11/11 13:04:06;;;;;;;2.08;1.85;;;;;;;;;;4957800;28;20089;-84
2023/11/11 13:06:35;;;;;;;2.97;1.85;;;;;;;;;;4957678;28;20061;-89
2023/11/11 13:09:09;;;;;;;2.08;1.52;;;;;;;;;;4958001;28;20062;-88
2023/11/11 13:11:35;;;;;;;1.60;1.50;;;;;;;;;;4957502;28;20031;-89
2023/11/11 13:14:04;;;;;;;1.70;1.60;;;;;;;;;;4957944;28;20031;-90
2023/11/11 13:16:30;;;;;;;1.92;1.80;;;;;;;;;;4957444;28;20399;-89
2023/11/11 13:18:56;;;;;;;2.25;1.45;;;;;;;;;;4956759;28;20038;-89
2023/11/11 13:21:29;;;;;;;2.22;1.60;;;;;;;;;;4957161;28;20441;-89
2023/11/11 13:23:56;;;;;;;1.98;1.40;;;;;;;;;;4956318;28;20051;-89
2023/11/11 13:26:23;;;;;;;1.60;1.50;;;;;;;;;;4955670;28;20477;-86
2023/11/11 13:28:48;;;;;;;1.52;1.40;;;;;;;;;;4957039;28;20031;-87
2023/11/11 13:31:18;;;;;;;1.98;1.30;;;;;;;;;;4956016;29;20082;-87
2023/11/11 13:33:48;;;;;;;1.27;1.17;;;;;;;;;;4955883;29;20497;-87
2023/11/11 13:36:17;;;;;;;;;;;;;;;;;;4939066;29;20032;-86
2023/11/11 13:38:48;;;;;;;2.33;2.00;;;;;;;;;;4938261;29;19914;-88
2023/11/11 13:41:15;;;;;;;33.60;24.52;;;;;;;;;;4938055;29;20032;-88
2023/11/11 13:43:45;;;;;;;11.73;8.75;;;;;;;;;;4949102;29;20085;-87
2023/11/11 13:46:12;;;;;;;5.72;5.00;;;;;;;;;;4955791;29;20032;-86
2023/11/11 13:48:38;;;;;;;4.85;3.00;;;;;;;;;;4956869;28;20058;-87
2023/11/11 13:51:04;;;;;;;2.10;1.98;;;;;;;;;;4967425;28;20054;-86
2023/11/11 13:53:31;;;;;;;2.08;1.90;;;;;;;;;;4976324;28;20367;-87
2023/11/11 13:56:00;;;;;;;2.45;1.70;;;;;;;;;;4975942;28;20373;-87
2023/11/11 13:58:25;;;;;;;3.45;3.15;;;;;;;;;;4975807;28;20034;-89
2023/11/11 14:00:51;;;;;;;3.92;2.20;;;;;;;;;;4975867;28;20030;-87
2023/11/11 14:03:20;;;;;;;2.40;2.20;;;;;;;;;;4958636;28;20045;-87
2023/11/11 14:05:46;;;;;;;1.23;1.13;;;;;;;;;;4976021;28;20027;-89
2023/11/11 14:08:12;;;;;;;2.58;1.20;;;;;;;;;;4975765;28;20118;-89
2023/11/11 14:10:37;;;;;;;1.83;1.60;;;;;;;;;;4976284;28;20109;-88
2023/11/11 14:13:03;;;;;;;3.88;3.15;;;;;;;;;;4975058;28;20062;-87
2023/11/11 14:15:45;;;;;;;4.93;3.30;;;;;;;;;;4975601;28;20023;-84
2023/11/11 14:18:12;;;;;;;1.92;1.83;;;;;;;;;;4958193;28;20089;-87
2023/11/11 14:20:38;;;;;;;2.08;1.92;;;;;;;;;;4975619;28;20031;-87
2023/11/11 14:23:04;;;;;;;1.80;1.70;;;;;;;;;;4975643;28;20019;-86
2023/11/11 14:25:30;;;;;;;1.90;1.60;;;;;;;;;;4974825;28;20398;-87
2023/11/11 14:27:56;;;;;;;1.85;1.42;;;;;;;;;;4975574;28;20069;-86
2023/11/11 14:30:21;;;;;;;22.50;13.02;;;;;;;;;;4975805;28;20019;-86
2023/11/11 14:32:47;;;;;;;4.57;3.90;;;;;;;;;;4958069;28;20091;-89
2023/11/11 14:35:16;;;;;;;3.33;3.03;;;;;;;;;;4975679;28;20031;-86
2023/11/11 14:37:44;;;;;;;3.42;2.67;;;;;;;;;;4974710;28;20023;-86
2023/11/11 14:40:16;;;;;;;1.90;1.80;;;;;;;;;;4975235;28;20031;-87
2023/11/11 14:42:46;;;;;;;1.95;1.85;;;;;;;;;;4958694;28;20031;-86
2023/11/11 14:45:13;;;;;;;1.80;1.70;;;;;;;;;;4975222;28;20091;-87
2023/11/11 14:47:45;;;;;;;1.30;1.20;;;;;;;;;;4957954;28;20027;-87
2023/11/11 14:50:15;;;;;;;2.65;1.20;;;;;;;;;;4975085;28;20482;-88
2023/11/11 14:52:43;;;;;;;1.30;1.20;;;;;;;;;;4975152;28;20034;-90
2023/11/11 14:55:13;;;;;;;1.02;1.00;;;;;;;;;;4958207;28;20058;-87
2023/11/11 14:57:42;;;;;;;3.08;1.90;;;;;;;;;;4974908;28;20034;-90
2023/11/11 15:00:09;;;;;;;1.83;1.73;;;;;;;;;;4977030;28;20031;-88
2023/11/11 15:02:36;;;;;;;1.50;1.40;;;;;;;;;;4957894;28;20122;-89
2023/11/11 15:05:09;;;;;;;5.70;1.98;;;;;;;;;;4974917;28;20101;-90
2023/11/11 15:07:35;;;;;;;1.33;1.23;;;;;;;;;;4957697;28;20035;-88
2023/11/11 15:10:06;;;;;;;1.40;1.30;;;;;;;;;;4974924;28;20037;-88
2023/11/11 15:12:38;;;;;;;1.30;1.20;;;;;;;;;;4974980;28;20045;-87
2023/11/11 15:15:07;;;;;;;1.77;1.08;;;;;;;;;;4957646;28;20034;-88
2023/11/11 15:17:33;;;;;;;2.07;1.43;;;;;;;;;;4957620;28;20023;-87
2023/11/11 15:19:59;;;;;;;1.00;1.00;;;;;;;;;;4974739;28;20022;-87
2023/11/11 15:22:25;;;;;;;1.58;1.48;;;;;;;;;;4974973;28;20027;-89
2023/11/11 15:24:53;;;;;;;2.17;1.40;;;;;;;;;;4974717;28;20102;-88
2023/11/11 15:27:20;;;;;;;1.50;1.33;;;;;;;;;;4974772;28;20378;-88
2023/11/11 15:29:47;;;;;;;1.15;1.10;;;;;;;;;;4974683;28;20023;-87
2023/11/11 15:32:13;;;;;;;1.30;1.05;;;;;;;;;;4974915;28;20030;-88
2023/11/11 15:34:39;;;;;;;1.08;1.08;;;;;;;;;;4979237;28;20035;-88
2023/11/11 15:37:05;;;;;;;2.05;1.10;;;;;;;;;;4974807;28;20029;-87
2023/11/11 15:39:34;;;;;;;1.58;1.35;;;;;;;;;;4974912;28;20094;-88
2023/11/11 15:42:00;;;;;;;3.00;1.85;;;;;;;;;;4957608;28;20031;-88
2023/11/11 15:44:29;;;;;;;1.70;1.50;;;;;;;;;;4974443;28;20039;-88
2023/11/11 15:46:55;;;;;;;1.60;1.50;;;;;;;;;;4974190;28;20509;-89
2023/11/11 15:49:22;;;;;;;1.20;1.10;;;;;;;;;;4974748;28;20496;-88
2023/11/11 15:51:49;;;;;;;2.55;1.60;;;;;;;;;;4974582;28;20548;-88
2023/11/11 15:54:14;;;;;;;2.63;2.20;;;;;;;;;;4956877;28;20031;-88
2023/11/11 15:56:40;;;;;;;2.10;1.45;;;;;;;;;;4957047;28;20031;-89
2023/11/11 15:59:07;;;;;;;1.67;1.58;;;;;;;;;;4957244;28;20118;-89
2023/11/11 16:01:32;;;;;;;1.20;1.10;;;;;;;;;;4957569;28;20409;-88
2023/11/11 16:03:58;;;;;;;1.30;1.05;;;;;;;;;;4957340;28;20105;-90
2023/11/11 16:06:26;;;;;;;1.40;1.10;;;;;;;;;;4974425;28;20034;-87
2023/11/11 16:08:52;;;;;;;1.25;1.05;;;;;;;;;;4956905;28;20035;-89
2023/11/11 16:11:18;;;;;;;2.47;1.00;;;;;;;;;;4956861;28;20038;-89
2023/11/11 16:13:43;;;;;;;1.10;1.10;;;;;;;;;;4956882;28;20038;-89
2023/11/11 16:16:14;;;;;;;1.33;1.23;;;;;;;;;;4974888;28;20034;-88
2023/11/11 16:18:39;;;;;;;2.10;1.23;;;;;;;;;;4957111;28;20099;-89
2023/11/11 16:21:05;;;;;;;6.63;2.85;;;;;;;;;;4975000;28;20031;-92
2023/11/11 17:57:18;;;;;;;6.95;6.45;;;;;;;;;;5388453;23;20060;-89
2023/11/11 17:59:43;;;;;;;2.67;2.47;;;;;;;;;;4902792;29;20040;-87
2023/11/11 18:02:09;;;;;;;6.53;3.28;;;;;;;;;;4901658;29;20028;-87
2023/11/11 18:04:35;;;;;;;2.75;1.67;;;;;;;;;;4918681;29;20032;-86
2023/11/11 18:07:01;;;;;;;2.08;1.50;;;;;;;;;;4918305;29;20028;-85
2023/11/11 18:09:26;;;;;;;2.47;1.80;;;;;;;;;;4902068;29;20032;-89
2023/11/11 18:11:52;;;;;;;2.00;1.80;;;;;;;;;;4918378;29;20021;-88
2023/11/11 18:14:18;;;;;;;2.10;1.58;;;;;;;;;;4918341;29;20057;-88
2023/11/11 18:16:44;;;;;;;2.50;1.63;;;;;;;;;;4901637;29;20040;-92
2023/11/11 18:19:10;;;;;;;1.85;1.52;;;;;;;;;;4918710;29;20021;-92
2023/11/11 18:21:36;;;;;;;3.83;3.10;;;;;;;;;;4919319;29;20039;-87
2023/11/11 18:24:02;;;;;;;5.10;4.28;;;;;;;;;;4918305;29;20435;-87
2023/11/11 18:26:27;;;;;;;5.03;4.30;;;;;;;;;;4918331;29;20028;-87
2023/11/11 18:28:53;;;;;;;2.03;1.58;;;;;;;;;;4901653;29;20024;-89
2023/11/11 18:31:18;;;;;;;5.80;3.83;;;;;;;;;;4918299;29;20024;-86
2023/11/11 18:33:44;;;;;;;4.72;4.05;;;;;;;;;;4918086;29;20031;-89
2023/11/11 18:36:09;;;;;;;6.82;4.53;;;;;;;;;;4918247;29;20483;-94
2023/11/11 18:38:36;;;;;;;3.88;3.40;;;;;;;;;;4907796;29;20028;-93
2023/11/11 18:41:04;;;;;;;3.10;2.80;;;;;;;;;;4931148;29;20039;-96
2023/11/11 18:43:33;;;;;;;4.53;3.70;;;;;;;;;;4920796;29;20107;-86
2023/11/11 18:45:59;;;;;;;6.05;4.25;;;;;;;;;;4919746;29;20027;-88
2023/11/11 18:48:25;;;;;;;8.65;6.72;;;;;;;;;;4936878;29;20046;-88
2023/11/11 18:50:50;;;;;;;10.63;7.63;;;;;;;;;;4936769;29;20151;-88
2023/11/11 18:53:16;;;;;;;9.25;5.78;;;;;;;;;;4936892;29;20035;-88
2023/11/11 18:55:43;;;;;;;5.47;4.20;;;;;;;;;;4936500;29;20031;-88
2023/11/11 18:58:09;;;;;;;5.22;3.80;;;;;;;;;;4936522;29;20044;-87
2023/11/11 19:00:34;;;;;;;4.82;3.38;;;;;;;;;;4919045;29;20435;-88
2023/11/11 19:03:00;;;;;;;2.97;2.30;;;;;;;;;;4919938;29;20034;-91
2023/11/11 19:05:26;;;;;;;6.10;2.90;;;;;;;;;;4919703;29;20035;-90
2023/11/11 19:07:52;;;;;;;3.33;2.70;;;;;;;;;;4936615;29;20075;-86
2023/11/11 19:10:17;;;;;;;3.05;2.85;;;;;;;;;;4936567;29;20027;-88
2023/11/11 19:12:43;;;;;;;4.43;3.47;;;;;;;;;;4919646;29;20079;-88
2023/11/11 19:15:09;;;;;;;4.88;3.30;;;;;;;;;;4936437;29;20102;-87
2023/11/11 19:17:34;;;;;;;3.33;3.03;;;;;;;;;;4919559;29;20069;-88
2023/11/11 19:20:00;;;;;;;3.40;3.00;;;;;;;;;;4919384;29;20035;-87
2023/11/11 19:22:25;;;;;;;36.53;22.40;;;;;;;;;;4919617;29;20054;-87
2023/11/11 19:24:51;;;;;;;69.00;28.77;;;;;;;;;;4909684;29;20497;-87
2023/11/11 19:27:17;;;;;;;41.08;18.77;;;;;;;;;;4908068;29;20467;-87
2023/11/11 19:29:42;;;;;;;12.43;7.93;;;;;;;;;;4919850;29;20468;-87
2023/11/11 19:32:08;;;;;;;8.70;5.55;;;;;;;;;;4900559;29;20028;-87
2023/11/11 19:34:34;;;;;;;6.47;4.75;;;;;;;;;;4917260;29;20071;-90
2023/11/11 19:36:59;;;;;;;7.03;4.10;;;;;;;;;;4900515;29;20063;-85
2023/11/11 19:39:26;;;;;;;8.35;6.88;;;;;;;;;;4917386;29;20479;-88
2023/11/11 19:41:51;;;;;;;29.88;20.70;;;;;;;;;;4917618;29;20039;-87
2023/11/11 19:44:17;;;;;;;12.70;9.50;;;;;;;;;;4900373;29;20391;-86
2023/11/11 19:46:44;;;;;;;12.85;10.18;;;;;;;;;;4900448;29;20028;-88
2023/11/11 19:49:09;;;;;;;8.38;6.63;;;;;;;;;;4917218;29;20060;-89
2023/11/11 19:51:37;;;;;;;6.30;4.53;;;;;;;;;;4900557;29;20032;-89
2023/11/11 19:54:06;;;;;;;5.13;4.53;;;;;;;;;;4917280;29;20040;-87
2023/11/11 19:56:32;;;;;;;3.67;2.95;;;;;;;;;;4917234;29;20028;-89
2023/11/11 19:58:58;;;;;;;10.05;6.53;;;;;;;;;;4900063;29;20051;-88
2023/11/11 20:01:25;;;;;;;13.30;8.40;;;;;;;;;;4917382;29;20020;-89
2023/11/11 20:03:51;;;;;;;15.27;10.32;;;;;;;;;;4917168;29;20028;-88
2023/11/11 20:06:18;;;;;;;10.63;7.00;;;;;;;;;;4900191;29;20060;-88
2023/11/11 20:08:44;;;;;;;9.60;5.05;;;;;;;;;;4917271;29;20036;-89
2023/11/11 20:11:10;;;;;;;10.35;6.95;;;;;;;;;;4917331;29;20032;-89
2023/11/11 20:13:36;;;;;;;7.13;4.93;;;;;;;;;;4903575;29;20538;-88
2023/11/11 20:16:02;;;;;;;5.88;4.50;;;;;;;;;;4920688;29;20032;-89
2023/11/11 20:18:28;;;;;;;6.15;5.00;;;;;;;;;;4903780;29;20024;-86
2023/11/11 20:20:53;;;;;;;8.18;4.30;;;;;;;;;;4920936;29;20067;-89
2023/11/11 20:23:19;;;;;;;7.07;5.05;;;;;;;;;;4904105;29;20514;-90
2023/11/11 20:25:45;;;;;;;6.97;4.88;;;;;;;;;;4920496;29;20111;-89
2023/11/11 20:28:10;;;;;;;6.85;5.70;;;;;;;;;;4920818;29;20204;-89
2023/11/11 20:30:37;;;;;;;7.50;5.75;;;;;;;;;;4920481;29;20059;-90
2023/11/11 20:33:07;;;;;;;7.20;5.07;;;;;;;;;;4903706;29;20383;-89
2023/11/11 20:35:33;;;;;;;6.28;5.20;;;;;;;;;;4920769;29;20030;-89
2023/11/11 20:37:59;;;;;;;6.03;5.03;;;;;;;;;;4920510;29;20493;-87
2023/11/11 20:40:24;;;;;;;7.38;5.00;;;;;;;;;;4903234;29;20028;-89
2023/11/11 20:42:51;;;;;;;7.25;4.68;;;;;;;;;;4903379;29;20024;-89
2023/11/11 20:45:17;;;;;;;5.47;4.30;;;;;;;;;;4920427;29;20050;-90
2023/11/11 20:47:43;;;;;;;4.63;4.13;;;;;;;;;;4920392;29;20475;-90
2023/11/11 20:50:13;;;;;;;6.60;3.65;;;;;;;;;;4903287;29;20031;-89
2023/11/11 20:52:39;;;;;;;3.15;2.60;;;;;;;;;;4920121;29;20554;-88
2023/11/11 20:55:05;;;;;;;2.90;2.60;;;;;;;;;;4920315;29;20029;-90
2023/11/11 20:57:30;;;;;;;9.18;3.25;;;;;;;;;;4902956;29;20466;-89
2023/11/11 20:59:56;;;;;;;3.85;2.90;;;;;;;;;;4919918;29;20099;-89
2023/11/11 21:02:23;;;;;;;3.20;2.90;;;;;;;;;;4920187;29;20036;-88
2023/11/11 21:04:48;;;;;;;2.47;2.20;;;;;;;;;;4903011;29;20031;-88
2023/11/11 21:07:14;;;;;;;2.65;2.15;;;;;;;;;;4919764;29;20029;-87
2023/11/11 21:09:40;;;;;;;2.45;2.15;;;;;;;;;;4919790;29;20025;-88
2023/11/11 21:12:06;;;;;;;4.30;2.75;;;;;;;;;;4919931;29;20376;-88
2023/11/11 21:14:32;;;;;;;2.83;2.28;;;;;;;;;;4903084;29;20028;-89
2023/11/11 21:16:57;;;;;;;4.43;2.80;;;;;;;;;;4904633;29;20044;-87
2023/11/11 21:19:22;;;;;;;7.57;4.05;;;;;;;;;;4921202;29;20409;-89
2023/11/11 21:21:49;;;;;;;4.50;3.60;;;;;;;;;;4919729;29;20039;-89
2023/11/11 21:24:17;;;;;;;7.95;3.92;;;;;;;;;;4902384;29;20376;-90
2023/11/11 21:26:44;;;;;;;6.00;4.03;;;;;;;;;;4919611;29;20103;-91
2023/11/11 21:29:09;;;;;;;7.03;4.30;;;;;;;;;;4919813;29;20020;-90
2023/11/11 21:31:35;;;;;;;5.53;4.47;;;;;;;;;;4919710;29;20028;-89
2023/11/11 21:34:03;;;;;;;6.68;4.25;;;;;;;;;;4919747;29;20050;-87
2023/11/11 21:36:29;;;;;;;7.30;4.65;;;;;;;;;;4902613;29;20483;-89
2023/11/11 21:38:55;;;;;;;7.65;4.50;;;;;;;;;;4919792;29;20051;-90
2023/11/11 21:41:21;;;;;;;5.70;4.40;;;;;;;;;;4919607;29;20071;-89
2023/11/11 21:43:46;;;;;;;6.72;4.20;;;;;;;;;;4919446;29;20028;-87
2023/11/11 21:46:12;;;;;;;5.40;4.07;;;;;;;;;;4919369;29;20056;-88
2023/11/11 21:48:37;;;;;;;6.22;4.20;;;;;;;;;;4919354;29;20028;-87
2023/11/11 21:51:03;;;;;;;4.90;3.83;;;;;;;;;;4902396;29;20028;-88
2023/11/11 21:53:29;;;;;;;5.00;3.70;;;;;;;;;;4902058;29;20063;-88
2023/11/11 21:55:54;;;;;;;3.90;2.42;;;;;;;;;;4918981;29;20061;-88
2023/11/11 21:58:20;;;;;;;2.83;2.17;;;;;;;;;;4918935;29;20055;-89
2023/11/11 22:00:45;;;;;;;2.95;2.13;;;;;;;;;;4919347;29;20067;-89
2023/11/11 22:03:11;;;;;;;3.10;2.80;;;;;;;;;;4919068;29;20043;-89
2023/11/11 22:05:36;;;;;;;3.28;1.98;;;;;;;;;;4901992;29;20036;-89
2023/11/11 22:08:02;;;;;;;3.13;2.53;;;;;;;;;;4919281;29;20052;-89
2023/11/11 22:10:28;;;;;;;3.90;2.53;;;;;;;;;;4886420;29;20040;-90
2023/11/11 22:12:54;;;;;;;6.60;2.63;;;;;;;;;;4902092;29;20032;-89
2023/11/11 22:15:19;;;;;;;3.15;2.75;;;;;;;;;;4901925;29;20044;-90
2023/11/11 22:17:45;;;;;;;6.93;5.30;;;;;;;;;;4919111;29;20032;-87
2023/11/11 22:20:11;;;;;;;9.20;5.95;;;;;;;;;;4925295;29;20031;-89
2023/11/11 22:22:39;;;;;;;6.75;5.30;;;;;;;;;;4937862;29;20039;-89
2023/11/11 22:25:07;;;;;;;8.98;6.30;;;;;;;;;;4938024;29;20029;-86
2023/11/11 22:27:32;;;;;;;25.73;16.25;;;;;;;;;;4937679;29;20030;-87
2023/11/11 22:29:58;;;;;;;31.45;21.23;;;;;;;;;;4937591;29;20094;-88
2023/11/11 22:32:23;;;;;;;15.23;9.60;;;;;;;;;;4937889;29;20062;-88
2023/11/11 22:34:48;;;;;;;12.98;8.45;;;;;;;;;;4936401;29;20038;-91
2023/11/11 22:37:14;;;;;;;65.50;29.15;;;;;;;;;;4920380;29;20027;-87
2023/11/11 22:39:40;;;;;;;36.05;17.13;;;;;;;;;;4920287;29;20523;-90
2023/11/11 22:42:06;;;;;;;286.95;103.55;;;;;;;;;;4937736;29;20107;-91
2023/11/11 22:44:32;;;;;;;119.72;42.17;;;;;;;;;;4937339;29;20154;-92
2023/11/11 22:46:58;;;;;;;152.75;61.08;;;;;;;;;;4937395;29;20107;-89
2023/11/11 22:49:25;;;;;;;157.63;58.22;;;;;;;;;;4920112;29;20031;-87
2023/11/11 22:51:51;;;;;;;254.90;83.25;;;;;;;;;;4937359;29;20016;-88
2023/11/11 22:54:18;;;;;;;157.27;46.90;;;;;;;;;;4937363;29;20083;-89
2023/11/11 22:56:43;;;;;;;74.35;24.45;;;;;;;;;;4920365;29;20028;-87
2023/11/11 22:59:10;;;;;;;25.50;11.20;;;;;;;;;;4937130;29;20411;-88
2023/11/11 23:01:35;;;;;;;14.50;7.13;;;;;;;;;;4936994;29;20062;-89
2023/11/11 23:04:03;;;;;;;5.80;4.63;;;;;;;;;;4920228;29;20047;-90
2023/11/11 23:06:30;;;;;;;31.73;16.02;;;;;;;;;;4937531;29;20028;-90
2023/11/11 23:08:57;;;;;;;8.10;5.22;;;;;;;;;;4937572;29;20023;-88
2023/11/11 23:11:29;;;;;;;11.38;6.85;;;;;;;;;;4937529;29;20028;-93
